createdAt,value
2023-05-04T00:00:08.576Z,3.53
2023-05-04T00:02:36.562Z,4.93
2023-05-04T00:05:07.338Z,3.35
2023-05-04T00:07:35.149Z,4.00
2023-05-04T00:10:03.245Z,5.80
2023-05-04T00:12:31.406Z,3.78
2023-05-04T00:14:59.211Z,4.73
2023-05-04T00:17:27.162Z,4.93
2023-05-04T00:19:54.908Z,4.90
2023-05-04T00:22:24.026Z,5.07
2023-05-04T00:24:51.736Z,3.80
2023-05-04T00:27:19.517Z,5.72
2023-05-04T00:29:47.287Z,2.83
2023-05-04T00:32:14.992Z,4.93
2023-05-04T00:34:42.773Z,5.38
2023-05-04T00:37:10.575Z,2.60
2023-05-04T00:39:39.664Z,6.72
2023-05-04T00:42:07.678Z,3.90
2023-05-04T00:44:35.642Z,3.58
2023-05-04T00:47:04.297Z,4.05
2023-05-04T00:49:32.159Z,3.15
2023-05-04T00:52:04.097Z,2.93
2023-05-04T00:54:33.217Z,3.47
2023-05-04T00:57:03.787Z,4.55
2023-05-04T00:59:31.699Z,4.43
2023-05-04T01:01:59.380Z,5.00
2023-05-04T01:04:27.365Z,3.97
2023-05-04T01:07:01.929Z,3.97
2023-05-04T01:09:37.141Z,4.93
2023-05-04T01:12:08.724Z,4.13
2023-05-04T01:14:37.380Z,2.67
2023-05-04T01:17:06.985Z,2.67
2023-05-04T01:19:35.327Z,4.40
2023-05-04T01:22:06.225Z,4.15
2023-05-04T01:24:34.457Z,3.53
2023-05-04T01:27:06.629Z,3.78
2023-05-04T01:29:42.558Z,4.73
2023-05-04T01:32:11.937Z,4.43
2023-05-04T01:34:41.574Z,4.80
2023-05-04T01:37:11.156Z,4.43
2023-05-04T01:39:38.901Z,4.20
2023-05-04T01:42:07.390Z,3.20
2023-05-04T01:44:35.148Z,5.90
2023-05-04T01:47:02.940Z,3.15
2023-05-04T01:49:30.850Z,7.07
2023-05-04T01:51:58.572Z,4.00
2023-05-04T01:54:27.771Z,3.07
2023-05-04T01:56:55.552Z,4.87
2023-05-04T01:59:23.453Z,4.75
2023-05-04T02:01:51.362Z,4.17
2023-05-04T02:04:19.244Z,3.30
2023-05-04T02:06:47.841Z,2.95
2023-05-04T02:09:16.464Z,3.77
2023-05-04T02:11:46.579Z,4.30
2023-05-04T02:14:14.330Z,4.03
2023-05-04T02:16:42.161Z,5.88
2023-05-04T02:19:09.917Z,5.17
2023-05-04T02:21:37.685Z,5.47
2023-05-04T02:24:06.966Z,4.60
2023-05-04T02:26:34.780Z,3.97
2023-05-04T02:29:04.973Z,3.97
2023-05-04T02:31:32.899Z,4.20
2023-05-04T02:34:01.396Z,5.65
2023-05-04T02:36:29.142Z,4.07
2023-05-04T02:38:56.877Z,3.63
2023-05-04T02:41:24.638Z,3.23
2023-05-04T02:43:52.860Z,5.03
2023-05-04T02:46:22.129Z,3.30
2023-05-04T02:48:49.855Z,5.50
2023-05-04T02:51:17.743Z,4.30
2023-05-04T02:53:45.540Z,4.40
2023-05-04T02:56:13.357Z,4.93
2023-05-04T02:58:41.135Z,3.43
2023-05-04T03:01:08.924Z,5.27
2023-05-04T03:03:38.097Z,5.33
2023-05-04T03:06:06.362Z,4.63
2023-05-04T03:08:34.216Z,4.27
2023-05-04T03:11:01.983Z,4.85
2023-05-04T03:13:29.681Z,3.67
2023-05-04T03:15:57.534Z,4.77
2023-05-04T03:18:25.538Z,4.20
2023-05-04T03:20:55.074Z,2.92
2023-05-04T03:23:23.629Z,7.60
2023-05-04T03:25:51.368Z,4.03
2023-05-04T03:28:19.111Z,3.43
2023-05-04T03:30:47.012Z,4.20
2023-05-04T03:33:15.332Z,3.92
2023-05-04T03:35:43.260Z,3.20
2023-05-04T03:38:12.948Z,3.80
2023-05-04T03:40:40.777Z,2.60
2023-05-04T03:43:08.482Z,4.93
2023-05-04T03:45:36.926Z,3.13
2023-05-04T03:48:05.365Z,3.30
2023-05-04T03:50:33.207Z,4.13
2023-05-04T03:53:00.978Z,3.58
2023-05-04T03:55:30.991Z,4.20
2023-05-04T03:57:59.265Z,4.90
2023-05-04T04:00:28.034Z,2.95
2023-05-04T04:03:05.014Z,6.28
2023-05-04T04:05:34.173Z,3.50
2023-05-04T04:08:01.924Z,4.00
2023-05-04T04:10:31.868Z,6.47
2023-05-04T04:12:59.598Z,4.00
2023-05-04T04:15:27.728Z,4.53
2023-05-04T04:17:55.560Z,7.97
2023-05-04T04:20:23.481Z,3.40
2023-05-04T04:22:51.244Z,3.70
2023-05-04T04:25:19.084Z,4.57
2023-05-04T04:27:48.206Z,3.60
2023-05-04T04:30:16.913Z,4.20
2023-05-04T04:32:45.745Z,3.45
2023-05-04T04:35:14.068Z,8.23
2023-05-04T04:37:42.117Z,5.13
2023-05-04T04:40:11.459Z,4.90
2023-05-04T04:42:39.223Z,5.23
2023-05-04T04:45:09.654Z,3.63
2023-05-04T04:47:37.640Z,3.88
2023-05-04T04:50:06.819Z,4.43
2023-05-04T04:52:34.843Z,3.87
2023-05-04T04:55:04.291Z,6.37
2023-05-04T04:57:32.192Z,6.93
2023-05-04T05:00:00.828Z,3.20
2023-05-04T05:02:30.041Z,4.97
2023-05-04T05:04:58.042Z,4.03
2023-05-04T05:07:25.937Z,3.80
2023-05-04T05:09:53.752Z,3.77
2023-05-04T05:12:21.492Z,4.77
2023-05-04T05:14:50.691Z,7.07
2023-05-04T05:17:19.139Z,5.37
2023-05-04T05:19:48.183Z,4.43
2023-05-04T05:22:15.906Z,5.20
2023-05-04T05:24:43.789Z,5.23
2023-05-04T05:27:11.443Z,7.90
2023-05-04T05:29:39.543Z,5.23
2023-05-04T05:32:07.434Z,5.67
2023-05-04T05:34:38.834Z,6.20
2023-05-04T05:37:07.966Z,6.67
2023-05-04T05:39:36.873Z,3.53
2023-05-04T05:42:04.628Z,5.83
2023-05-04T05:44:32.440Z,7.70
2023-05-04T05:47:00.187Z,6.20
2023-05-04T05:49:27.904Z,5.30
2023-05-04T05:51:55.688Z,3.57
2023-05-04T05:54:24.785Z,4.20
2023-05-04T05:56:52.632Z,4.37
2023-05-04T05:59:20.358Z,4.20
2023-05-04T06:01:48.079Z,6.50
2023-05-04T06:04:16.001Z,5.87
2023-05-04T06:06:45.802Z,4.47
2023-05-04T06:09:14.052Z,5.87
2023-05-04T06:11:43.245Z,4.80
2023-05-04T06:14:10.988Z,6.63
2023-05-04T06:16:38.743Z,6.57
2023-05-04T06:19:07.291Z,5.50
2023-05-04T06:21:35.093Z,4.13
2023-05-04T06:24:02.793Z,7.37
2023-05-04T06:26:30.571Z,4.47
2023-05-04T06:28:59.735Z,4.40
2023-05-04T06:31:28.033Z,4.43
2023-05-04T06:33:55.845Z,7.50
2023-05-04T06:36:25.645Z,3.77
2023-05-04T06:38:55.484Z,5.67
2023-05-04T06:41:23.389Z,4.53
2023-05-04T06:43:51.584Z,4.87
2023-05-04T06:46:20.713Z,3.63
2023-05-04T06:48:48.680Z,6.30
2023-05-04T06:51:16.592Z,5.10
2023-05-04T06:53:44.360Z,10.70
2023-05-04T06:56:12.432Z,9.50
2023-05-04T06:58:40.162Z,8.70
2023-05-04T07:01:09.249Z,10.02
2023-05-04T07:03:38.820Z,12.97
2023-05-04T07:06:07.141Z,10.82
2023-05-04T07:08:35.013Z,13.87
2023-05-04T07:11:02.776Z,15.57
2023-05-04T07:13:30.559Z,9.43
2023-05-04T07:15:58.408Z,10.20
2023-05-04T07:18:26.289Z,6.70
2023-05-04T07:21:01.793Z,8.38
2023-05-04T07:23:39.278Z,8.07
2023-05-04T07:26:08.045Z,6.18
2023-05-04T07:28:35.784Z,7.50
2023-05-04T07:31:03.813Z,4.77
2023-05-04T07:33:31.619Z,6.18
2023-05-04T07:36:01.375Z,5.80
2023-05-04T07:38:29.168Z,3.63
2023-05-04T07:40:57.481Z,3.80
2023-05-04T07:43:25.495Z,3.85
2023-05-04T07:45:54.407Z,5.40
2023-05-04T07:48:24.005Z,4.30
2023-05-04T07:50:53.785Z,5.43
2023-05-04T07:53:25.333Z,8.10
2023-05-04T07:55:54.201Z,8.50
2023-05-04T07:58:22.322Z,6.57
2023-05-04T08:00:50.510Z,6.33
2023-05-04T08:03:18.311Z,4.15
2023-05-04T08:05:46.310Z,3.60
2023-05-04T08:08:14.056Z,6.38
2023-05-04T08:10:43.123Z,4.80
2023-05-04T08:13:10.906Z,4.20
2023-05-04T08:15:38.727Z,6.10
2023-05-04T08:18:06.499Z,4.78
2023-05-04T08:20:34.409Z,4.07
2023-05-04T08:23:03.832Z,5.03
2023-05-04T08:25:31.626Z,5.95
2023-05-04T08:28:01.891Z,5.23
2023-05-04T08:30:31.297Z,6.93
2023-05-04T08:33:00.300Z,5.03
2023-05-04T08:35:28.745Z,5.25
2023-05-04T08:37:56.643Z,4.43
2023-05-04T08:40:24.995Z,6.65
2023-05-04T08:42:52.981Z,7.10
2023-05-04T08:45:23.134Z,7.63
2023-05-04T08:47:51.798Z,7.28
2023-05-04T08:50:19.567Z,5.67
2023-05-04T08:52:47.935Z,12.65
2023-05-04T08:55:17.104Z,10.27
2023-05-04T08:57:45.532Z,8.43
2023-05-04T09:00:17.317Z,7.22
2023-05-04T09:02:47.073Z,8.80
2023-05-04T09:05:15.869Z,5.47
2023-05-04T09:07:43.777Z,5.72
2023-05-04T09:10:11.991Z,6.05
2023-05-04T09:12:39.740Z,6.45
2023-05-04T09:15:18.122Z,9.18
2023-05-04T09:17:58.269Z,8.95
2023-05-04T09:20:26.728Z,6.10
2023-05-04T09:23:02.162Z,6.20
2023-05-04T09:25:29.887Z,6.57
2023-05-04T09:27:58.258Z,6.90
2023-05-04T09:30:26.132Z,5.80
2023-05-04T09:32:53.931Z,4.65
2023-05-04T09:35:33.718Z,7.38
2023-05-04T09:38:02.237Z,5.43
2023-05-04T09:40:33.831Z,5.85
2023-05-04T09:43:01.998Z,6.68
2023-05-04T09:45:40.097Z,8.38
2023-05-04T09:48:18.856Z,8.45
2023-05-04T09:50:55.183Z,7.53
2023-05-04T09:53:24.991Z,6.10
2023-05-04T09:56:04.462Z,7.03
2023-05-04T09:58:34.383Z,6.33
2023-05-04T10:01:02.697Z,7.73
2023-05-04T10:03:31.241Z,4.15
2023-05-04T10:06:01.276Z,7.63
2023-05-04T10:08:29.538Z,9.27
2023-05-04T10:10:58.454Z,8.63
2023-05-04T10:13:26.866Z,5.10
2023-05-04T10:16:10.674Z,4.10
2023-05-04T10:18:53.509Z,4.37
2023-05-04T10:21:33.944Z,4.32
2023-05-04T10:24:38.324Z,6.07
2023-05-04T10:27:11.785Z,4.15
2023-05-04T10:29:40.616Z,6.20
2023-05-04T10:32:18.957Z,8.05
2023-05-04T10:34:46.836Z,7.78
2023-05-04T10:37:21.795Z,6.07
2023-05-04T10:39:53.778Z,7.75
2023-05-04T10:42:22.287Z,6.15
2023-05-04T10:44:51.347Z,4.68
2023-05-04T10:47:29.620Z,7.38
2023-05-04T10:50:05.220Z,4.53
2023-05-04T10:52:46.623Z,5.70
2023-05-04T10:55:15.263Z,5.72
2023-05-04T10:57:50.716Z,4.68
2023-05-04T11:00:19.550Z,5.32
2023-05-04T11:02:48.815Z,6.22
2023-05-04T11:05:19.951Z,4.53
2023-05-04T11:07:53.098Z,4.88
2023-05-04T11:10:22.793Z,3.10
2023-05-04T11:12:50.732Z,4.28
2023-05-04T11:15:20.071Z,2.70
2023-05-04T11:17:48.487Z,4.18
2023-05-04T11:20:23.212Z,5.45
2023-05-04T11:22:53.426Z,6.10
2023-05-04T11:25:28.646Z,6.13
2023-05-04T11:27:56.996Z,5.38
2023-05-04T11:30:32.590Z,4.18
2023-05-04T11:33:00.942Z,2.97
2023-05-04T11:35:29.023Z,4.45
2023-05-04T11:37:58.072Z,4.65
2023-05-04T11:40:27.371Z,4.72
2023-05-04T11:42:57.530Z,3.65
2023-05-04T11:45:29.497Z,3.00
2023-05-04T11:47:58.527Z,3.92
2023-05-04T11:50:27.875Z,5.38
2023-05-04T11:53:06.963Z,8.07
2023-05-04T11:55:34.881Z,4.75
2023-05-04T11:58:04.343Z,2.67
2023-05-04T12:00:38.680Z,5.03
2023-05-04T12:03:07.477Z,6.20
2023-05-04T12:05:36.896Z,5.18
2023-05-04T12:08:07.509Z,5.22
2023-05-04T12:10:35.654Z,4.80
2023-05-04T12:13:03.647Z,3.97
2023-05-04T12:15:33.509Z,3.40
2023-05-04T12:18:03.000Z,5.75
2023-05-04T12:20:31.619Z,8.27
2023-05-04T12:22:59.525Z,4.15
2023-05-04T12:25:28.657Z,3.78
2023-05-04T12:27:56.405Z,4.43
2023-05-04T12:30:24.152Z,3.50
2023-05-04T12:32:51.967Z,4.38
2023-05-04T12:35:19.781Z,6.43
2023-05-04T12:37:48.096Z,5.78
2023-05-04T12:40:27.629Z,6.43
2023-05-04T12:42:58.523Z,6.75
2023-05-04T12:45:26.287Z,5.60
2023-05-04T12:47:54.030Z,3.92
2023-05-04T12:50:21.930Z,3.17
2023-05-04T12:52:49.720Z,4.18
2023-05-04T12:55:18.570Z,4.78
2023-05-04T12:57:46.472Z,2.45
2023-05-04T13:00:16.706Z,2.25
2023-05-04T13:02:44.537Z,2.15
2023-05-04T13:05:12.921Z,6.88
2023-05-04T13:07:40.714Z,4.45
2023-05-04T13:10:09.133Z,3.20
2023-05-04T13:12:38.269Z,4.25
2023-05-04T13:15:07.501Z,2.88
2023-05-04T13:17:37.830Z,5.20
2023-05-04T13:20:06.672Z,2.58
2023-05-04T13:22:34.617Z,5.63
2023-05-04T13:25:02.494Z,5.32
2023-05-04T13:27:30.648Z,6.35
2023-05-04T13:30:00.965Z,2.60
2023-05-04T13:32:28.773Z,5.10
2023-05-04T13:34:58.010Z,7.07
2023-05-04T13:37:25.827Z,5.68
2023-05-04T13:39:53.872Z,3.92
2023-05-04T13:42:21.625Z,6.50
2023-05-04T13:44:49.321Z,5.88
2023-05-04T13:47:17.549Z,3.28
2023-05-04T13:49:45.523Z,4.78
2023-05-04T13:52:14.674Z,4.15
2023-05-04T13:54:42.378Z,4.40
2023-05-04T13:57:10.091Z,5.10
2023-05-04T13:59:37.856Z,4.88
2023-05-04T14:02:05.729Z,3.25
2023-05-04T14:04:33.455Z,3.30
2023-05-04T14:07:01.298Z,3.92
2023-05-04T14:09:30.458Z,3.53
2023-05-04T14:11:58.681Z,3.75
2023-05-04T14:14:26.453Z,3.42
2023-05-04T14:16:54.235Z,3.75
2023-05-04T14:19:22.012Z,7.65
2023-05-04T14:21:49.724Z,5.75
2023-05-04T14:24:17.474Z,8.25
2023-05-04T14:26:46.764Z,6.10
2023-05-04T14:29:14.485Z,3.92
2023-05-04T14:31:42.279Z,3.28
2023-05-04T14:34:10.862Z,6.55
2023-05-04T14:36:38.569Z,4.85
2023-05-04T14:39:06.476Z,4.00
2023-05-04T14:41:35.535Z,3.70
2023-05-04T14:44:05.577Z,6.13
2023-05-04T14:46:33.895Z,3.33
2023-05-04T14:49:01.767Z,3.30
2023-05-04T14:51:29.996Z,4.03
2023-05-04T14:53:59.610Z,2.00
2023-05-04T14:56:28.474Z,5.30
2023-05-04T14:58:57.246Z,3.03
2023-05-04T15:01:26.493Z,4.32
2023-05-04T15:03:54.377Z,3.67
2023-05-04T15:06:22.240Z,2.47
2023-05-04T15:08:49.977Z,2.17
2023-05-04T15:11:19.309Z,3.08
2023-05-04T15:13:47.277Z,3.55
2023-05-04T15:16:18.250Z,4.00
2023-05-04T15:18:47.368Z,5.65
2023-05-04T15:21:15.156Z,4.15
2023-05-04T15:23:43.004Z,4.90
2023-05-04T15:26:10.818Z,4.97
2023-05-04T15:28:38.569Z,4.32
2023-05-04T15:31:07.327Z,2.50
2023-05-04T15:33:35.065Z,4.07
2023-05-04T15:36:07.639Z,3.28
2023-05-04T15:38:36.111Z,3.58
2023-05-04T15:41:05.475Z,2.47
2023-05-04T15:43:33.268Z,3.63
2023-05-04T15:46:01.122Z,4.25
2023-05-04T15:48:28.883Z,4.03
2023-05-04T15:50:56.671Z,3.17
2023-05-04T15:53:25.819Z,4.03
2023-05-04T15:55:53.752Z,6.00
2023-05-04T15:58:22.884Z,5.47
2023-05-04T16:00:50.785Z,3.53
2023-05-04T16:03:18.891Z,4.07
2023-05-04T16:05:46.721Z,6.47
2023-05-04T16:08:17.016Z,6.55
2023-05-04T16:10:47.553Z,4.47
2023-05-04T16:13:15.351Z,4.82
2023-05-04T16:15:43.103Z,5.93
2023-05-04T16:18:11.447Z,5.00
2023-05-04T16:20:39.208Z,6.05
2023-05-04T16:23:06.996Z,3.28
2023-05-04T16:25:34.805Z,3.85
2023-05-04T16:28:03.989Z,4.72
2023-05-04T16:30:34.153Z,3.15
2023-05-04T16:33:03.280Z,3.20
2023-05-04T16:35:31.980Z,4.13
2023-05-04T16:38:00.398Z,3.58
2023-05-04T16:40:28.512Z,3.97
2023-05-04T16:42:56.246Z,2.28
2023-05-04T16:45:30.983Z,4.65
2023-05-04T16:48:00.178Z,5.32
2023-05-04T16:50:27.956Z,3.35
2023-05-04T16:52:55.822Z,3.53
2023-05-04T16:55:23.700Z,3.05
2023-05-04T16:57:51.421Z,4.43
2023-05-04T17:00:19.958Z,3.78
2023-05-04T17:02:49.085Z,2.88
2023-05-04T17:05:17.029Z,2.70
2023-05-04T17:07:44.809Z,3.33
2023-05-04T17:10:13.679Z,3.67
2023-05-04T17:12:42.158Z,3.03
2023-05-04T17:15:11.193Z,2.90
2023-05-04T17:17:38.979Z,3.33
2023-05-04T17:20:14.927Z,3.53
2023-05-04T17:22:43.101Z,5.65
2023-05-04T17:29:25.342Z,5.28
2023-05-04T17:31:53.077Z,5.30
2023-05-04T17:34:20.769Z,5.18
2023-05-04T17:36:49.763Z,6.18
2023-05-04T17:39:18.637Z,6.85
2023-05-04T17:41:48.489Z,7.28
2023-05-04T17:44:16.526Z,7.32
2023-05-04T17:46:44.450Z,6.30
2023-05-04T17:49:12.119Z,8.73
2023-05-04T17:51:40.569Z,6.40
2023-05-04T17:54:09.579Z,7.82
2023-05-04T17:56:37.232Z,6.50
2023-05-04T17:59:04.867Z,6.45
2023-05-04T18:01:32.628Z,8.35
2023-05-04T18:04:03.214Z,9.95
2023-05-04T18:06:31.631Z,6.82
2023-05-04T18:08:59.543Z,8.32
2023-05-04T18:11:28.758Z,8.30
2023-05-04T18:13:59.411Z,8.65
2023-05-04T18:16:27.233Z,6.32
2023-05-04T18:18:56.068Z,4.00
2023-05-04T18:21:25.953Z,5.30
2023-05-04T18:23:53.725Z,3.28
2023-05-04T18:26:22.652Z,2.95
2023-05-04T18:28:52.000Z,4.18
2023-05-04T18:31:20.358Z,4.80
2023-05-04T18:33:48.199Z,3.15
2023-05-04T18:36:15.875Z,4.20
2023-05-04T18:38:43.552Z,7.10
2023-05-04T18:41:11.858Z,3.65
2023-05-04T18:43:39.597Z,4.25
2023-05-04T18:46:09.326Z,4.93
2023-05-04T18:48:37.969Z,4.97
2023-05-04T18:51:05.790Z,5.07
2023-05-04T18:53:36.838Z,3.35
2023-05-04T18:56:05.211Z,4.40
2023-05-04T18:58:33.290Z,3.80
2023-05-04T19:01:01.198Z,3.67
2023-05-04T19:03:30.658Z,3.55
2023-05-04T19:05:58.480Z,3.40
2023-05-04T19:08:26.422Z,3.53
2023-05-04T19:10:58.056Z,4.57
2023-05-04T19:13:26.281Z,3.20
2023-05-04T19:15:54.113Z,7.15
2023-05-04T19:18:22.147Z,3.08
2023-05-04T19:20:51.525Z,3.67
2023-05-04T19:23:19.278Z,6.70
2023-05-04T19:25:46.975Z,6.07
2023-05-04T19:28:15.057Z,8.13
2023-05-04T19:30:42.910Z,5.72
2023-05-04T19:33:10.745Z,6.63
2023-05-04T19:35:38.449Z,5.13
2023-05-04T19:38:07.845Z,4.75
2023-05-04T19:40:36.233Z,5.40
2023-05-04T19:43:04.516Z,3.15
2023-05-04T19:45:32.748Z,3.35
2023-05-04T19:48:00.541Z,3.80
2023-05-04T19:50:28.294Z,3.53
2023-05-04T19:52:56.772Z,3.40
2023-05-04T19:55:25.985Z,7.97
2023-05-04T19:57:53.762Z,4.10
2023-05-04T20:00:21.436Z,6.13
2023-05-04T20:02:49.579Z,4.55
2023-05-04T20:05:17.607Z,5.25
2023-05-04T20:07:45.407Z,3.90
2023-05-04T20:10:13.159Z,5.38
2023-05-04T20:12:42.245Z,3.90
2023-05-04T20:15:10.784Z,4.82
2023-05-04T20:17:38.679Z,4.95
2023-05-04T20:20:07.894Z,3.53
2023-05-04T20:22:35.914Z,3.88
2023-05-04T20:25:03.704Z,5.25
2023-05-04T20:27:31.401Z,3.78
2023-05-04T20:30:00.546Z,6.40
2023-05-04T20:32:28.911Z,5.70
2023-05-04T20:34:56.764Z,4.88
2023-05-04T20:37:24.488Z,4.80
2023-05-04T20:39:52.790Z,4.15
2023-05-04T20:42:20.890Z,4.68
2023-05-04T20:44:48.585Z,4.57
2023-05-04T20:47:18.625Z,3.88
2023-05-04T20:49:46.408Z,4.15
2023-05-04T20:52:14.153Z,5.47
2023-05-04T20:54:42.378Z,5.55
2023-05-04T20:57:10.386Z,4.65
2023-05-04T20:59:38.234Z,3.97
2023-05-04T21:02:05.987Z,3.80
2023-05-04T21:04:35.123Z,4.28
2023-05-04T21:07:02.882Z,4.68
2023-05-04T21:09:30.602Z,4.30
2023-05-04T21:11:58.457Z,4.78
2023-05-04T21:14:26.230Z,3.95
2023-05-04T21:16:53.948Z,6.45
2023-05-04T21:19:21.661Z,4.25
2023-05-04T21:21:50.824Z,4.68
2023-05-04T21:24:18.573Z,4.65
2023-05-04T21:26:48.392Z,6.65
2023-05-04T21:29:16.324Z,4.65
2023-05-04T21:31:44.278Z,4.22
2023-05-04T21:34:12.239Z,5.18
2023-05-04T21:36:40.425Z,8.20
2023-05-04T21:39:09.588Z,4.30
2023-05-04T21:41:37.404Z,4.13
2023-05-04T21:44:05.481Z,7.15
2023-05-04T21:46:33.231Z,4.18
2023-05-04T21:49:01.293Z,5.35
2023-05-04T21:51:29.368Z,4.95
2023-05-04T21:53:57.132Z,4.65
2023-05-04T21:56:26.265Z,5.40
2023-05-04T21:58:54.095Z,4.10
2023-05-04T22:01:22.030Z,5.82
2023-05-04T22:03:50.609Z,4.60
2023-05-04T22:06:18.776Z,4.40
2023-05-04T22:08:46.594Z,4.50
2023-05-04T22:11:14.366Z,5.85
2023-05-04T22:13:43.587Z,5.40
2023-05-04T22:16:11.372Z,4.68
2023-05-04T22:18:39.514Z,6.32
2023-05-04T22:21:07.320Z,5.80
2023-05-04T22:23:35.084Z,8.73
2023-05-04T22:26:03.254Z,8.98
2023-05-04T22:28:31.147Z,11.32
2023-05-04T22:31:00.622Z,9.48
2023-05-04T22:33:28.405Z,7.28
2023-05-04T22:35:56.104Z,7.57
2023-05-04T22:38:23.984Z,6.78
2023-05-04T22:40:51.768Z,5.63
2023-05-04T22:43:19.667Z,6.65
2023-05-04T22:45:47.423Z,5.18
2023-05-04T22:48:16.625Z,8.68
2023-05-04T22:50:44.403Z,6.95
2023-05-04T22:53:12.103Z,8.50
2023-05-04T22:55:39.865Z,9.20
2023-05-04T22:58:07.997Z,11.45
2023-05-04T23:00:36.421Z,10.43
2023-05-04T23:03:04.423Z,9.25
2023-05-04T23:05:33.584Z,11.25
2023-05-04T23:08:01.357Z,11.73
2023-05-04T23:10:29.180Z,11.60
2023-05-04T23:12:57.150Z,8.90
2023-05-04T23:15:25.466Z,10.38
2023-05-04T23:17:53.605Z,14.50
2023-05-04T23:20:21.540Z,10.73
2023-05-04T23:22:50.983Z,9.00
2023-05-04T23:25:18.862Z,9.55
2023-05-04T23:27:46.706Z,8.48
2023-05-04T23:30:15.616Z,8.15
2023-05-04T23:32:43.356Z,8.13
2023-05-04T23:35:11.179Z,10.88
2023-05-04T23:37:38.990Z,7.38
2023-05-04T23:40:10.147Z,7.35
2023-05-04T23:42:38.307Z,8.43
2023-05-04T23:45:07.491Z,7.22
2023-05-04T23:47:35.193Z,5.43
2023-05-04T23:50:03.041Z,5.93
2023-05-04T23:52:30.797Z,5.55
2023-05-04T23:54:58.568Z,6.83
2023-05-04T23:57:27.677Z,5.25
2023-05-04T23:59:55.401Z,6.18
